Toulouse, Kentucky
Current Conditions -  °F | °C
As of 11:09 AM on Wednesday 22 Oct 2014 (Local Time) from KJKL Reporting Station
Overcast Overcast  
Wind Chill: 43°   Ceiling: 1000
Heat Index: 45°   Visibility: 10mi
Dew Point: 40°   Wind: 5mph
Humidity: 82%   Direction: NA
Pressure: 30.25"   Gusts: NA
Location:  37.2537°N, 83.2991°W
Report Text: KJKL 221509Z AUTO VRB04KT 10SM OVC010 07/04 A3025 RMK AO2 T00720044
Loading
Personal Weather Stations






























Interactive Weather Map
Tropical Storm Tracking
New forecast layout! Learn more

10-Day Weather Forecast

Advertisements
Track Severe Weather on mobile